sensor_id;sensor_type;location;lat;lon;timestamp;pressure;altitude;pressure_sealevel;temperature;humidity
64711;BME280;51139;45.626;6.850;2023-03-01T00:01:49;81615.25;;;-2.63;52.69
64711;BME280;51139;45.626;6.850;2023-03-01T00:04:14;81611.13;;;-2.53;52.20
64711;BME280;51139;45.626;6.850;2023-03-01T00:06:42;81611.47;;;-2.62;51.98
64711;BME280;51139;45.626;6.850;2023-03-01T00:09:08;81609.03;;;-2.54;51.88
64711;BME280;51139;45.626;6.850;2023-03-01T00:11:33;81610.38;;;-2.23;51.07
64711;BME280;51139;45.626;6.850;2023-03-01T00:14:01;81609.34;;;-2.39;51.17
64711;BME280;51139;45.626;6.850;2023-03-01T00:16:30;81607.25;;;-2.40;51.69
64711;BME280;51139;45.626;6.850;2023-03-01T00:18:56;81606.50;;;-2.60;51.71
64711;BME280;51139;45.626;6.850;2023-03-01T00:21:23;81604.44;;;-2.42;51.13
64711;BME280;51139;45.626;6.850;2023-03-01T00:23:49;81610.00;;;-2.57;51.03
64711;BME280;51139;45.626;6.850;2023-03-01T00:26:16;81600.06;;;-2.53;51.23
64711;BME280;51139;45.626;6.850;2023-03-01T00:28:42;81613.03;;;-2.53;50.77
64711;BME280;51139;45.626;6.850;2023-03-01T00:31:13;81603.03;;;-2.43;51.03
64711;BME280;51139;45.626;6.850;2023-03-01T00:33:38;81605.75;;;-2.55;50.78
64711;BME280;51139;45.626;6.850;2023-03-01T00:36:04;81596.47;;;-2.50;50.46
64711;BME280;51139;45.626;6.850;2023-03-01T00:38:30;81610.53;;;-2.65;51.53
64711;BME280;51139;45.626;6.850;2023-03-01T00:40:55;81605.53;;;-2.57;51.17
64711;BME280;51139;45.626;6.850;2023-03-01T00:43:27;81604.03;;;-2.52;51.15
64711;BME280;51139;45.626;6.850;2023-03-01T00:45:52;81611.81;;;-2.77;51.63
64711;BME280;51139;45.626;6.850;2023-03-01T00:48:18;81605.78;;;-2.60;50.98
64711;BME280;51139;45.626;6.850;2023-03-01T00:50:43;81606.00;;;-2.33;50.46
64711;BME280;51139;45.626;6.850;2023-03-01T00:53:08;81602.31;;;-2.44;51.09
64711;BME280;51139;45.626;6.850;2023-03-01T00:55:35;81608.44;;;-2.41;50.67
64711;BME280;51139;45.626;6.850;2023-03-01T00:58:01;81602.00;;;-2.35;49.80
64711;BME280;51139;45.626;6.850;2023-03-01T01:00:26;81591.41;;;-2.37;50.16
64711;BME280;51139;45.626;6.850;2023-03-01T01:02:52;81597.19;;;-2.50;50.08
64711;BME280;51139;45.626;6.850;2023-03-01T01:05:18;81596.47;;;-2.50;49.93
64711;BME280;51139;45.626;6.850;2023-03-01T01:07:46;81578.72;;;-2.65;50.34
64711;BME280;51139;45.626;6.850;2023-03-01T01:10:12;81588.78;;;-2.56;50.17
64711;BME280;51139;45.626;6.850;2023-03-01T01:12:42;81584.16;;;-2.44;49.78
64711;BME280;51139;45.626;6.850;2023-03-01T01:15:08;81587.09;;;-2.53;50.28
64711;BME280;51139;45.626;6.850;2023-03-01T01:17:33;81579.31;;;-2.53;49.60
64711;BME280;51139;45.626;6.850;2023-03-01T01:19:59;81569.78;;;-2.45;49.67
64711;BME280;51139;45.626;6.850;2023-03-01T01:22:24;81559.47;;;-2.51;50.24
64711;BME280;51139;45.626;6.850;2023-03-01T01:24:50;81566.91;;;-2.66;50.39
64711;BME280;51139;45.626;6.850;2023-03-01T01:27:15;81565.16;;;-2.52;50.15
64711;BME280;51139;45.626;6.850;2023-03-01T01:29:40;81559.16;;;-2.41;49.29
64711;BME280;51139;45.626;6.850;2023-03-01T01:32:07;81551.09;;;-2.38;50.39
64711;BME280;51139;45.626;6.850;2023-03-01T01:34:32;81563.81;;;-2.59;50.03
64711;BME280;51139;45.626;6.850;2023-03-01T01:36:57;81552.13;;;-2.46;49.70
64711;BME280;51139;45.626;6.850;2023-03-01T01:39:27;81548.09;;;-2.97;53.94
64711;BME280;51139;45.626;6.850;2023-03-01T01:41:53;81555.78;;;-2.86;53.08
64711;BME280;51139;45.626;6.850;2023-03-01T01:44:21;81555.31;;;-2.84;51.14
64711;BME280;51139;45.626;6.850;2023-03-01T01:47:06;81552.38;;;-2.50;50.53
64711;BME280;51139;45.626;6.850;2023-03-01T01:49:38;81545.47;;;-2.42;51.19
64711;BME280;51139;45.626;6.850;2023-03-01T01:52:13;81549.72;;;-2.20;51.16
64711;BME280;51139;45.626;6.850;2023-03-01T01:54:50;81548.94;;;-2.58;50.81
64711;BME280;51139;45.626;6.850;2023-03-01T01:57:22;81539.84;;;-2.46;51.72
64711;BME280;51139;45.626;6.850;2023-03-01T01:59:52;81535.94;;;-2.33;49.88
64711;BME280;51139;45.626;6.850;2023-03-01T02:02:20;81539.44;;;-2.75;50.94
64711;BME280;51139;45.626;6.850;2023-03-01T02:04:47;81537.16;;;-2.59;50.97
64711;BME280;51139;45.626;6.850;2023-03-01T02:07:19;81535.47;;;-2.82;51.56
64711;BME280;51139;45.626;6.850;2023-03-01T02:09:48;81528.41;;;-2.56;50.27
64711;BME280;51139;45.626;6.850;2023-03-01T02:12:17;81530.25;;;-2.76;50.37
64711;BME280;51139;45.626;6.850;2023-03-01T02:14:43;81526.09;;;-2.60;51.36
64711;BME280;51139;45.626;6.850;2023-03-01T02:17:10;81523.66;;;-2.52;51.24
64711;BME280;51139;45.626;6.850;2023-03-01T02:22:24;81509.66;;;-2.43;50.09
64711;BME280;51139;45.626;6.850;2023-03-01T02:27:32;81502.22;;;-2.53;50.63
64711;BME280;51139;45.626;6.850;2023-03-01T02:30:01;81499.28;;;-2.43;50.00
64711;BME280;51139;45.626;6.850;2023-03-01T02:32:27;81495.91;;;-2.38;49.65
64711;BME280;51139;45.626;6.850;2023-03-01T02:34:55;81500.94;;;-2.46;49.73
64711;BME280;51139;45.626;6.850;2023-03-01T02:37:21;81485.13;;;-2.42;50.33
64711;BME280;51139;45.626;6.850;2023-03-01T02:39:55;81487.00;;;-2.43;50.45
64711;BME280;51139;45.626;6.850;2023-03-01T02:42:26;81472.16;;;-2.42;50.06
64711;BME280;51139;45.626;6.850;2023-03-01T02:44:55;81472.00;;;-2.31;49.33
64711;BME280;51139;45.626;6.850;2023-03-01T02:47:21;81483.91;;;-2.41;48.81
64711;BME280;51139;45.626;6.850;2023-03-01T02:49:47;81470.31;;;-2.47;48.66
64711;BME280;51139;45.626;6.850;2023-03-01T02:52:40;81468.19;;;-2.49;49.24
64711;BME280;51139;45.626;6.850;2023-03-01T02:55:11;81470.91;;;-2.60;49.54
64711;BME280;51139;45.626;6.850;2023-03-01T02:57:40;81472.72;;;-2.74;49.76
64711;BME280;51139;45.626;6.850;2023-03-01T03:00:09;81473.81;;;-2.64;50.40
64711;BME280;51139;45.626;6.850;2023-03-01T03:02:36;81468.69;;;-2.95;50.38
64711;BME280;51139;45.626;6.850;2023-03-01T03:07:34;81461.53;;;-2.64;50.12
64711;BME280;51139;45.626;6.850;2023-03-01T03:10:01;81462.75;;;-2.70;50.09
64711;BME280;51139;45.626;6.850;2023-03-01T03:12:27;81461.56;;;-2.69;50.27
64711;BME280;51139;45.626;6.850;2023-03-01T03:14:52;81456.97;;;-2.57;49.88
64711;BME280;51139;45.626;6.850;2023-03-01T03:17:17;81455.03;;;-2.51;49.15
64711;BME280;51139;45.626;6.850;2023-03-01T03:19:43;81454.13;;;-2.54;48.67
64711;BME280;51139;45.626;6.850;2023-03-01T03:22:11;81451.19;;;-2.44;48.45
64711;BME280;51139;45.626;6.850;2023-03-01T03:24:36;81457.47;;;-2.59;50.29
64711;BME280;51139;45.626;6.850;2023-03-01T03:27:04;81457.91;;;-2.55;50.75
64711;BME280;51139;45.626;6.850;2023-03-01T03:29:30;81451.28;;;-2.75;51.35
64711;BME280;51139;45.626;6.850;2023-03-01T03:31:55;81452.50;;;-2.82;51.54
64711;BME280;51139;45.626;6.850;2023-03-01T03:34:21;81448.91;;;-2.73;50.54
64711;BME280;51139;45.626;6.850;2023-03-01T03:36:46;81448.97;;;-2.59;50.47
64711;BME280;51139;45.626;6.850;2023-03-01T03:39:12;81440.59;;;-2.46;49.31
64711;BME280;51139;45.626;6.850;2023-03-01T03:41:37;81437.63;;;-2.56;49.79
64711;BME280;51139;45.626;6.850;2023-03-01T03:44:02;81439.53;;;-2.38;49.10
64711;BME280;51139;45.626;6.850;2023-03-01T03:46:28;81440.31;;;-2.43;49.03
64711;BME280;51139;45.626;6.850;2023-03-01T03:48:53;81439.66;;;-2.49;48.90
64711;BME280;51139;45.626;6.850;2023-03-01T03:51:18;81432.47;;;-2.37;48.82
64711;BME280;51139;45.626;6.850;2023-03-01T03:53:44;81439.22;;;-2.72;49.30
64711;BME280;51139;45.626;6.850;2023-03-01T03:56:11;81432.03;;;-2.41;48.59
64711;BME280;51139;45.626;6.850;2023-03-01T03:58:36;81437.34;;;-2.33;48.49
64711;BME280;51139;45.626;6.850;2023-03-01T04:01:03;81430.91;;;-2.27;48.37
64711;BME280;51139;45.626;6.850;2023-03-01T04:03:30;81429.50;;;-2.47;48.29
64711;BME280;51139;45.626;6.850;2023-03-01T04:05:58;81429.00;;;-2.65;48.91
64711;BME280;51139;45.626;6.850;2023-03-01T04:08:23;81427.34;;;-2.43;48.91
64711;BME280;51139;45.626;6.850;2023-03-01T04:10:52;81439.63;;;-2.43;48.97
64711;BME280;51139;45.626;6.850;2023-03-01T04:13:21;81427.91;;;-2.31;47.69
64711;BME280;51139;45.626;6.850;2023-03-01T04:15:51;81419.75;;;-2.60;49.53
64711;BME280;51139;45.626;6.850;2023-03-01T04:18:18;81420.66;;;-2.57;48.78
64711;BME280;51139;45.626;6.850;2023-03-01T04:20:44;81416.50;;;-2.66;49.28
64711;BME280;51139;45.626;6.850;2023-03-01T04:23:15;81412.38;;;-2.75;49.93
64711;BME280;51139;45.626;6.850;2023-03-01T04:25:57;81419.81;;;-2.66;49.73
64711;BME280;51139;45.626;6.850;2023-03-01T04:28:28;81411.91;;;-2.54;49.32
64711;BME280;51139;45.626;6.850;2023-03-01T04:30:55;81420.50;;;-2.84;49.51
64711;BME280;51139;45.626;6.850;2023-03-01T04:33:22;81411.13;;;-2.49;48.66
64711;BME280;51139;45.626;6.850;2023-03-01T04:35:47;81403.78;;;-2.45;48.46
64711;BME280;51139;45.626;6.850;2023-03-01T04:38:17;81406.66;;;-2.29;48.26
64711;BME280;51139;45.626;6.850;2023-03-01T04:40:42;81405.53;;;-2.34;48.09
64711;BME280;51139;45.626;6.850;2023-03-01T04:43:09;81398.09;;;-2.24;47.66
64711;BME280;51139;45.626;6.850;2023-03-01T04:45:35;81402.84;;;-2.28;47.44
64711;BME280;51139;45.626;6.850;2023-03-01T04:48:01;81399.16;;;-2.52;48.21
64711;BME280;51139;45.626;6.850;2023-03-01T04:50:27;81405.19;;;-2.63;48.54
64711;BME280;51139;45.626;6.850;2023-03-01T04:52:52;81405.09;;;-2.57;48.84
64711;BME280;51139;45.626;6.850;2023-03-01T04:55:18;81403.66;;;-2.53;48.77
64711;BME280;51139;45.626;6.850;2023-03-01T04:57:44;81404.94;;;-2.84;50.70
64711;BME280;51139;45.626;6.850;2023-03-01T05:00:12;81401.31;;;-2.75;49.21
64711;BME280;51139;45.626;6.850;2023-03-01T05:05:13;81406.00;;;-2.74;49.01
64711;BME280;51139;45.626;6.850;2023-03-01T05:07:38;81409.06;;;-2.95;49.53
64711;BME280;51139;45.626;6.850;2023-03-01T05:10:04;81401.63;;;-3.04;49.29
64711;BME280;51139;45.626;6.850;2023-03-01T05:12:29;81398.44;;;-2.72;48.77
64711;BME280;51139;45.626;6.850;2023-03-01T05:14:55;81403.13;;;-2.89;49.52
64711;BME280;51139;45.626;6.850;2023-03-01T05:17:20;81404.44;;;-3.02;51.00
64711;BME280;51139;45.626;6.850;2023-03-01T05:19:46;81394.38;;;-2.86;49.83
64711;BME280;51139;45.626;6.850;2023-03-01T05:22:11;81401.63;;;-3.29;51.14
64711;BME280;51139;45.626;6.850;2023-03-01T05:24:36;81402.44;;;-3.15;50.61
64711;BME280;51139;45.626;6.850;2023-03-01T05:27:04;81396.03;;;-2.89;49.26
64711;BME280;51139;45.626;6.850;2023-03-01T05:29:31;81400.88;;;-2.99;49.44
64711;BME280;51139;45.626;6.850;2023-03-01T05:32:00;81391.00;;;-2.81;49.28
64711;BME280;51139;45.626;6.850;2023-03-01T05:34:30;81394.72;;;-2.76;48.95
64711;BME280;51139;45.626;6.850;2023-03-01T05:36:57;81392.06;;;-2.71;48.67
64711;BME280;51139;45.626;6.850;2023-03-01T05:39:24;81380.44;;;-2.64;48.40
64711;BME280;51139;45.626;6.850;2023-03-01T05:41:58;81379.69;;;-2.59;48.76
64711;BME280;51139;45.626;6.850;2023-03-01T05:44:25;81382.53;;;-2.82;49.04
64711;BME280;51139;45.626;6.850;2023-03-01T05:46:50;81369.00;;;-2.74;48.82
64711;BME280;51139;45.626;6.850;2023-03-01T05:49:16;81369.00;;;-2.55;49.30
64711;BME280;51139;45.626;6.850;2023-03-01T05:51:43;81374.47;;;-2.78;49.43
64711;BME280;51139;45.626;6.850;2023-03-01T05:54:12;81371.81;;;-2.53;48.48
64711;BME280;51139;45.626;6.850;2023-03-01T05:56:37;81365.84;;;-2.67;48.63
64711;BME280;51139;45.626;6.850;2023-03-01T05:59:04;81372.78;;;-2.75;48.30
64711;BME280;51139;45.626;6.850;2023-03-01T06:01:30;81369.72;;;-2.55;47.39
64711;BME280;51139;45.626;6.850;2023-03-01T06:03:56;81362.16;;;-2.53;47.39
64711;BME280;51139;45.626;6.850;2023-03-01T06:06:22;81372.53;;;-2.53;47.10
64711;BME280;51139;45.626;6.850;2023-03-01T06:08:48;81368.38;;;-2.42;46.34
64711;BME280;51139;45.626;6.850;2023-03-01T06:11:13;81372.28;;;-2.36;46.49
64711;BME280;51139;45.626;6.850;2023-03-01T06:13:40;81366.22;;;-2.57;47.74
64711;BME280;51139;45.626;6.850;2023-03-01T06:16:06;81373.00;;;-2.73;47.63
64711;BME280;51139;45.626;6.850;2023-03-01T06:18:32;81368.94;;;-2.50;47.13
64711;BME280;51139;45.626;6.850;2023-03-01T06:20:57;81359.69;;;-2.45;47.13
64711;BME280;51139;45.626;6.850;2023-03-01T06:23:23;81366.00;;;-2.98;47.73
64711;BME280;51139;45.626;6.850;2023-03-01T06:25:48;81383.59;;;-3.15;49.23
64711;BME280;51139;45.626;6.850;2023-03-01T06:28:14;81377.88;;;-3.33;49.40
64711;BME280;51139;45.626;6.850;2023-03-01T06:30:39;81380.44;;;-3.27;49.68
64711;BME280;51139;45.626;6.850;2023-03-01T06:33:05;81382.09;;;-3.30;49.96
64711;BME280;51139;45.626;6.850;2023-03-01T06:35:30;81381.06;;;-3.21;49.36
64711;BME280;51139;45.626;6.850;2023-03-01T06:37:57;81377.50;;;-3.18;49.28
64711;BME280;51139;45.626;6.850;2023-03-01T06:40:23;81378.69;;;-3.19;49.76
64711;BME280;51139;45.626;6.850;2023-03-01T06:42:50;81371.66;;;-2.80;48.52
64711;BME280;51139;45.626;6.850;2023-03-01T06:45:17;81376.75;;;-3.13;49.20
64711;BME280;51139;45.626;6.850;2023-03-01T06:47:43;81366.50;;;-2.80;49.24
64711;BME280;51139;45.626;6.850;2023-03-01T06:50:09;81364.38;;;-2.62;48.25
64711;BME280;51139;45.626;6.850;2023-03-01T06:52:34;81365.63;;;-2.50;47.80
64711;BME280;51139;45.626;6.850;2023-03-01T06:55:01;81368.09;;;-2.39;46.67
64711;BME280;51139;45.626;6.850;2023-03-01T06:57:27;81369.94;;;-2.53;47.46
64711;BME280;51139;45.626;6.850;2023-03-01T06:59:52;81376.44;;;-2.84;47.59
64711;BME280;51139;45.626;6.850;2023-03-01T07:02:18;81364.81;;;-2.58;47.58
64711;BME280;51139;45.626;6.850;2023-03-01T07:04:43;81361.84;;;-2.30;46.92
64711;BME280;51139;45.626;6.850;2023-03-01T07:07:09;81361.44;;;-2.34;47.34
64711;BME280;51139;45.626;6.850;2023-03-01T07:09:34;81362.84;;;-2.00;45.67
64711;BME280;51139;45.626;6.850;2023-03-01T07:12:00;81366.94;;;-2.24;47.32
64711;BME280;51139;45.626;6.850;2023-03-01T07:14:26;81373.63;;;-2.48;48.63
64711;BME280;51139;45.626;6.850;2023-03-01T07:16:55;81368.28;;;-2.37;47.92
64711;BME280;51139;45.626;6.850;2023-03-01T07:19:21;81368.13;;;-2.06;47.21
64711;BME280;51139;45.626;6.850;2023-03-01T07:21:47;81357.47;;;-1.56;46.10
64711;BME280;51139;45.626;6.850;2023-03-01T07:24:12;81363.38;;;-1.42;44.52
64711;BME280;51139;45.626;6.850;2023-03-01T07:26:38;81361.09;;;-0.65;44.55
64711;BME280;51139;45.626;6.850;2023-03-01T07:29:05;81360.38;;;-0.39;42.66
64711;BME280;51139;45.626;6.850;2023-03-01T07:31:31;81366.16;;;-0.33;41.62
64711;BME280;51139;45.626;6.850;2023-03-01T07:33:57;81368.78;;;0.23;41.11
64711;BME280;51139;45.626;6.850;2023-03-01T07:36:23;81365.50;;;0.23;41.67
64711;BME280;51139;45.626;6.850;2023-03-01T07:38:49;81370.59;;;-0.68;43.10
64711;BME280;51139;45.626;6.850;2023-03-01T07:41:14;81368.22;;;-1.06;44.54
64711;BME280;51139;45.626;6.850;2023-03-01T07:43:40;81358.09;;;-0.08;42.17
64711;BME280;51139;45.626;6.850;2023-03-01T07:46:05;81370.59;;;0.71;42.32
64711;BME280;51139;45.626;6.850;2023-03-01T07:48:32;81362.25;;;0.72;41.65
64711;BME280;51139;45.626;6.850;2023-03-01T07:51:02;81357.09;;;1.09;40.42
64711;BME280;51139;45.626;6.850;2023-03-01T07:53:27;81363.03;;;0.38;41.83
64711;BME280;51139;45.626;6.850;2023-03-01T07:56:10;81355.59;;;0.42;40.41
64711;BME280;51139;45.626;6.850;2023-03-01T07:58:37;81357.94;;;1.04;42.58
64711;BME280;51139;45.626;6.850;2023-03-01T08:01:05;81360.66;;;1.85;40.74
64711;BME280;51139;45.626;6.850;2023-03-01T08:03:31;81361.38;;;2.01;40.09
64711;BME280;51139;45.626;6.850;2023-03-01T08:05:59;81362.66;;;1.71;39.97
64711;BME280;51139;45.626;6.850;2023-03-01T08:08:25;81358.66;;;0.54;42.42
64711;BME280;51139;45.626;6.850;2023-03-01T08:10:51;81359.56;;;0.86;41.17
64711;BME280;51139;45.626;6.850;2023-03-01T08:13:16;81374.00;;;0.02;41.53
64711;BME280;51139;45.626;6.850;2023-03-01T08:15:47;81368.50;;;0.48;42.54
64711;BME280;51139;45.626;6.850;2023-03-01T08:18:12;81362.00;;;0.20;42.38
64711;BME280;51139;45.626;6.850;2023-03-01T08:20:37;81365.22;;;1.27;40.18
64711;BME280;51139;45.626;6.850;2023-03-01T08:23:03;81355.63;;;2.79;37.70
64711;BME280;51139;45.626;6.850;2023-03-01T08:25:28;81359.09;;;3.43;37.09
64711;BME280;51139;45.626;6.850;2023-03-01T08:27:54;81358.34;;;4.71;35.46
64711;BME280;51139;45.626;6.850;2023-03-01T08:30:19;81367.06;;;3.84;35.07
64711;BME280;51139;45.626;6.850;2023-03-01T08:32:45;81364.19;;;3.02;37.28
64711;BME280;51139;45.626;6.850;2023-03-01T08:35:11;81378.09;;;2.58;38.86
64711;BME280;51139;45.626;6.850;2023-03-01T08:37:36;81374.28;;;3.60;36.59
64711;BME280;51139;45.626;6.850;2023-03-01T08:40:01;81375.28;;;3.80;37.34
64711;BME280;51139;45.626;6.850;2023-03-01T08:42:28;81378.25;;;3.69;36.02
64711;BME280;51139;45.626;6.850;2023-03-01T08:44:54;81380.50;;;3.88;33.67
64711;BME280;51139;45.626;6.850;2023-03-01T08:47:19;81383.66;;;4.43;35.50
64711;BME280;51139;45.626;6.850;2023-03-01T08:49:45;81377.44;;;3.28;38.10
64711;BME280;51139;45.626;6.850;2023-03-01T08:52:10;81372.38;;;2.75;35.72
64711;BME280;51139;45.626;6.850;2023-03-01T08:54:35;81378.63;;;3.65;37.30
64711;BME280;51139;45.626;6.850;2023-03-01T08:57:02;81379.91;;;4.21;35.91
64711;BME280;51139;45.626;6.850;2023-03-01T08:59:27;81372.69;;;5.29;32.66
64711;BME280;51139;45.626;6.850;2023-03-01T09:01:55;81377.50;;;4.89;35.56
64711;BME280;51139;45.626;6.850;2023-03-01T09:04:20;81371.72;;;4.83;32.75
64711;BME280;51139;45.626;6.850;2023-03-01T09:06:46;81358.78;;;4.52;32.79
64711;BME280;51139;45.626;6.850;2023-03-01T09:09:16;81365.59;;;3.27;33.91
64711;BME280;51139;45.626;6.850;2023-03-01T09:11:42;81364.38;;;3.12;36.92
64711;BME280;51139;45.626;6.850;2023-03-01T09:14:08;81360.16;;;4.20;34.27
64711;BME280;51139;45.626;6.850;2023-03-01T09:16:34;81364.22;;;4.87;32.62
64711;BME280;51139;45.626;6.850;2023-03-01T09:19:02;81367.50;;;3.03;35.18
64711;BME280;51139;45.626;6.850;2023-03-01T09:21:28;81381.34;;;3.99;35.07
64711;BME280;51139;45.626;6.850;2023-03-01T09:23:56;81360.88;;;3.17;34.34
64711;BME280;51139;45.626;6.850;2023-03-01T09:26:22;81361.91;;;3.38;34.61
64711;BME280;51139;45.626;6.850;2023-03-01T09:28:50;81343.53;;;5.17;32.71
64711;BME280;51139;45.626;6.850;2023-03-01T09:31:17;81364.16;;;3.33;34.44
64711;BME280;51139;45.626;6.850;2023-03-01T09:33:46;81357.63;;;4.71;32.88
64711;BME280;51139;45.626;6.850;2023-03-01T09:36:15;81357.91;;;4.08;34.06
64711;BME280;51139;45.626;6.850;2023-03-01T09:38:41;81369.19;;;3.70;35.04
64711;BME280;51139;45.626;6.850;2023-03-01T09:41:43;81352.16;;;4.51;35.51
64711;BME280;51139;45.626;6.850;2023-03-01T09:47:18;81365.03;;;3.44;35.92
64711;BME280;51139;45.626;6.850;2023-03-01T09:52:40;81357.59;;;3.89;35.67
64711;BME280;51139;45.626;6.850;2023-03-01T09:55:19;81358.66;;;4.01;35.02
64711;BME280;51139;45.626;6.850;2023-03-01T09:58:05;81353.66;;;3.49;35.89
64711;BME280;51139;45.626;6.850;2023-03-01T10:00:42;81359.03;;;3.82;34.44
64711;BME280;51139;45.626;6.850;2023-03-01T10:03:44;81345.66;;;3.55;35.23
64711;BME280;51139;45.626;6.850;2023-03-01T10:06:23;81347.44;;;4.08;36.17
64711;BME280;51139;45.626;6.850;2023-03-01T10:08:54;81357.00;;;3.42;35.13
64711;BME280;51139;45.626;6.850;2023-03-01T10:11:28;81347.59;;;2.84;36.90
64711;BME280;51139;45.626;6.850;2023-03-01T10:14:13;81338.88;;;2.74;35.51
64711;BME280;51139;45.626;6.850;2023-03-01T10:19:32;81331.72;;;2.67;36.97
64711;BME280;51139;45.626;6.850;2023-03-01T10:22:13;81333.47;;;3.34;36.18
64711;BME280;51139;45.626;6.850;2023-03-01T10:24:40;81329.44;;;2.55;36.38
64711;BME280;51139;45.626;6.850;2023-03-01T10:27:12;81332.78;;;3.18;35.83
64711;BME280;51139;45.626;6.850;2023-03-01T10:32:45;81332.38;;;3.45;38.08
64711;BME280;51139;45.626;6.850;2023-03-01T10:38:04;81337.97;;;3.57;36.61
64711;BME280;51139;45.626;6.850;2023-03-01T10:40:32;81338.34;;;2.83;37.05
64711;BME280;51139;45.626;6.850;2023-03-01T10:42:59;81329.03;;;3.68;36.99
64711;BME280;51139;45.626;6.850;2023-03-01T10:48:23;81339.56;;;3.29;39.23
64711;BME280;51139;45.626;6.850;2023-03-01T10:51:12;81351.63;;;3.24;39.13
64711;BME280;51139;45.626;6.850;2023-03-01T10:53:47;81344.66;;;3.03;40.18
64711;BME280;51139;45.626;6.850;2023-03-01T10:56:14;81352.94;;;1.80;40.07
64711;BME280;51139;45.626;6.850;2023-03-01T10:59:04;81342.16;;;2.36;41.21
64711;BME280;51139;45.626;6.850;2023-03-01T11:01:33;81350.03;;;2.67;40.14
64711;BME280;51139;45.626;6.850;2023-03-01T11:04:13;81337.78;;;2.38;39.92
64711;BME280;51139;45.626;6.850;2023-03-01T11:06:40;81343.41;;;2.81;39.45
64711;BME280;51139;45.626;6.850;2023-03-01T11:09:21;81345.53;;;2.83;39.70
64711;BME280;51139;45.626;6.850;2023-03-01T11:11:52;81342.72;;;2.96;40.98
64711;BME280;51139;45.626;6.850;2023-03-01T11:16:48;81335.03;;;2.44;38.37
64711;BME280;51139;45.626;6.850;2023-03-01T11:19:18;81323.53;;;3.09;38.42
64711;BME280;51139;45.626;6.850;2023-03-01T11:24:14;81323.88;;;2.98;38.74
64711;BME280;51139;45.626;6.850;2023-03-01T11:26:43;81348.66;;;3.12;37.45
64711;BME280;51139;45.626;6.850;2023-03-01T11:29:21;81318.84;;;3.15;40.00
64711;BME280;51139;45.626;6.850;2023-03-01T11:31:51;81318.66;;;2.74;39.02
64711;BME280;51139;45.626;6.850;2023-03-01T11:34:23;81327.22;;;2.98;39.06
64711;BME280;51139;45.626;6.850;2023-03-01T11:36:59;81319.00;;;3.02;38.39
64711;BME280;51139;45.626;6.850;2023-03-01T11:45:03;81310.09;;;3.20;39.34
64711;BME280;51139;45.626;6.850;2023-03-01T11:47:55;81316.84;;;3.47;38.56
64711;BME280;51139;45.626;6.850;2023-03-01T11:50:47;81300.66;;;3.33;39.34
64711;BME280;51139;45.626;6.850;2023-03-01T11:56:35;81292.25;;;3.34;38.99
64711;BME280;51139;45.626;6.850;2023-03-01T12:06:55;81288.19;;;3.64;37.93
64711;BME280;51139;45.626;6.850;2023-03-01T12:12:17;81279.25;;;4.16;38.60
64711;BME280;51139;45.626;6.850;2023-03-01T12:25:53;81276.50;;;3.65;37.50
64711;BME280;51139;45.626;6.850;2023-03-01T12:34:34;81261.72;;;3.37;38.62
64711;BME280;51139;45.626;6.850;2023-03-01T12:43:15;81248.91;;;3.57;36.55
64711;BME280;51139;45.626;6.850;2023-03-01T12:51:18;81246.41;;;3.74;36.44
64711;BME280;51139;45.626;6.850;2023-03-01T12:53:48;81240.97;;;3.80;36.92
64711;BME280;51139;45.626;6.850;2023-03-01T12:56:19;81239.69;;;3.97;37.34
64711;BME280;51139;45.626;6.850;2023-03-01T13:01:31;81243.13;;;3.66;37.89
64711;BME280;51139;45.626;6.850;2023-03-01T13:07:00;81242.72;;;3.21;39.04
64711;BME280;51139;45.626;6.850;2023-03-01T13:09:36;81239.50;;;3.54;38.66
64711;BME280;51139;45.626;6.850;2023-03-01T13:12:04;81235.22;;;3.33;40.65
64711;BME280;51139;45.626;6.850;2023-03-01T13:14:53;81233.91;;;3.57;38.63
64711;BME280;51139;45.626;6.850;2023-03-01T13:17:30;81220.72;;;4.14;38.36
64711;BME280;51139;45.626;6.850;2023-03-01T13:19:57;81217.25;;;3.70;39.46
64711;BME280;51139;45.626;6.850;2023-03-01T13:22:29;81208.09;;;3.87;39.48
64711;BME280;51139;45.626;6.850;2023-03-01T13:25:22;81197.13;;;3.80;38.65
64711;BME280;51139;45.626;6.850;2023-03-01T13:27:48;81199.72;;;3.55;40.82
64711;BME280;51139;45.626;6.850;2023-03-01T13:35:53;81194.59;;;3.98;37.25
64711;BME280;51139;45.626;6.850;2023-03-01T13:41:03;81200.72;;;4.26;37.58
64711;BME280;51139;45.626;6.850;2023-03-01T13:43:38;81194.97;;;3.61;38.15
64711;BME280;51139;45.626;6.850;2023-03-01T13:46:31;81197.09;;;4.47;37.22
64711;BME280;51139;45.626;6.850;2023-03-01T13:48:58;81205.03;;;4.06;37.39
64711;BME280;51139;45.626;6.850;2023-03-01T13:51:25;81207.72;;;4.49;39.31
64711;BME280;51139;45.626;6.850;2023-03-01T13:53:53;81200.66;;;4.59;39.39
64711;BME280;51139;45.626;6.850;2023-03-01T13:56:36;81202.22;;;4.37;37.74
64711;BME280;51139;45.626;6.850;2023-03-01T13:59:20;81197.25;;;4.49;39.03
64711;BME280;51139;45.626;6.850;2023-03-01T14:01:55;81187.88;;;4.13;39.31
64711;BME280;51139;45.626;6.850;2023-03-01T14:04:29;81203.91;;;3.43;40.45
64711;BME280;51139;45.626;6.850;2023-03-01T14:07:29;81200.81;;;4.11;39.79
64711;BME280;51139;45.626;6.850;2023-03-01T14:10:02;81210.47;;;4.59;41.99
64711;BME280;51139;45.626;6.850;2023-03-01T14:13:13;81209.34;;;4.19;39.61
64711;BME280;51139;45.626;6.850;2023-03-01T14:18:38;81222.81;;;3.74;38.35
64711;BME280;51139;45.626;6.850;2023-03-01T14:21:09;81217.63;;;4.58;40.50
64711;BME280;51139;45.626;6.850;2023-03-01T14:23:34;81222.63;;;4.13;39.91
64711;BME280;51139;45.626;6.850;2023-03-01T14:26:01;81221.28;;;4.37;38.77
64711;BME280;51139;45.626;6.850;2023-03-01T14:28:29;81222.88;;;4.33;40.57
64711;BME280;51139;45.626;6.850;2023-03-01T14:30:57;81218.59;;;4.20;39.01
64711;BME280;51139;45.626;6.850;2023-03-01T14:33:34;81222.50;;;4.36;39.75
64711;BME280;51139;45.626;6.850;2023-03-01T14:36:04;81232.56;;;4.99;38.22
64711;BME280;51139;45.626;6.850;2023-03-01T14:38:34;81229.00;;;4.61;39.21
64711;BME280;51139;45.626;6.850;2023-03-01T14:43:33;81223.03;;;4.60;38.35
64711;BME280;51139;45.626;6.850;2023-03-01T14:46:00;81235.84;;;4.81;38.89
64711;BME280;51139;45.626;6.850;2023-03-01T14:48:28;81218.25;;;4.92;38.44
64711;BME280;51139;45.626;6.850;2023-03-01T14:50:54;81221.66;;;4.01;39.11
64711;BME280;51139;45.626;6.850;2023-03-01T14:53:25;81227.41;;;3.66;40.31
64711;BME280;51139;45.626;6.850;2023-03-01T14:55:54;81226.50;;;3.79;40.56